Detall de PIREP

Printer-friendly versionPDF version

[2013/01/29 10:02:00]
Flight IATA:CT3408
Pilot Number:011
Company ICAO:CAT
Aircraft Type:F28/A
PAX:85
Departing Airport: LEBL
Destination Airport: LSGG
Alternate Airport:LFLL
Online: VATSIM
Route:DALIN R870 DIBER A6 MTL B16 BELUS
Flight Level:F190
No Slew and time accel
No pause
Crash detect
Detect pilot in Cockpit between each 30 and 45 minutes
10:02 Zero fuel Weight: 59657 Lbs, Fuel Weight: 11417 Lbs
10:02 VATSIM:LEBL 290930Z 32008KT 9999 FEW030 11/05 Q1028 NOSIG
10:02 VATSIM:LSGG 290920Z 23007KT 9999 FEW030 SCT170 BKN300 04/M01 Q1024 NOSIG
10:10 Parking Brakes off
10:17 Take-off
10:17 Take off Weight: 70662 Lbs
10:17 Wind: 320º @ 004 Knots Heading: 018º
10:17 POS N41º 18´ 03´´ E002º 05´ 27´´
10:17 Gear Up: 151 Knots
10:17 Flaps:3 at 151 Knots
10:17 Flaps:2 at 185 Knots
10:20 Flaps:1 at 193 Knots
10:20 Flaps:0 at 215 Knots
10:27 TOC
10:27 Fuel Weight: 9583 Lb
10:32 Wind:185º@008 Knots Heading: 065º Ground Speed: 403 Knots Altitude 19373 ft
10:47 Wind:300º@013 Knots Heading: 018º Ground Speed: 398 Knots Altitude 19373 ft
11:02 Wind:040º@025 Knots Heading: 356º Ground Speed: 380 Knots Altitude 19350 ft
11:10 TOD
11:10 Fuel Weight: 5779 Lb
11:29 Flaps:1 at 205 Knots
11:29 Flaps:2 at 205 Knots
11:31 Flaps:3 at 184 Knots
11:32 Flaps:4 at 150 Knots
11:32 Gear Down: 151 Knots
11:32 Gear Up: 140 Knots
11:32 Flaps:5 at 140 Knots
11:32 Gear Down: 139 Knots
11:34 TouchDown:Rate -168 ft/min Speed: 101 Knots
11:34 VATSIM:LSGG 291050Z 25004KT 230V320 9999 FEW030 SCT170 BKN220 05/M00 Q1024 NOSIG
11:34 Land
11:34 Wind:250º@004 Knots
11:34 Heading: 225º
11:34 Flight Duration: 01:17
11:34 Landing Weight: 64098 Lbs
11:34 POS N46º 14´ 16´´ E006º 06´ 31´´
11:36 Parking brakes on
11:36 Block to Block Duration: 01:26
11:36 Final Fuel: 4371 Lbls
11:36 Spent Fuel: 7045 Lbls
11:36 Flight Length: 105 NM
11:36 TOD Land Length: 00 NM

Exportar CSV

Powered by Drupal - Modified by Danger4k